sensor_id;sensor_type;location;lat;lon;timestamp;temperature;humidity
22966;DHT22;11649;48.090;9.754;2023-02-28T00:01:25;-0.40;99.90
22966;DHT22;11649;48.090;9.754;2023-02-28T00:03:52;-0.30;99.90
22966;DHT22;11649;48.090;9.754;2023-02-28T00:06:20;-0.40;99.90
22966;DHT22;11649;48.090;9.754;2023-02-28T00:08:47;-0.30;99.90
22966;DHT22;11649;48.090;9.754;2023-02-28T00:11:15;-0.40;99.90
22966;DHT22;11649;48.090;9.754;2023-02-28T00:13:45;-0.40;99.90
22966;DHT22;11649;48.090;9.754;2023-02-28T00:16:21;-0.40;99.90
22966;DHT22;11649;48.090;9.754;2023-02-28T00:18:48;-0.40;99.90
22966;DHT22;11649;48.090;9.754;2023-02-28T00:21:16;-0.40;99.90
22966;DHT22;11649;48.090;9.754;2023-02-28T00:23:44;-0.40;99.90
22966;DHT22;11649;48.090;9.754;2023-02-28T00:26:11;-0.40;99.90
22966;DHT22;11649;48.090;9.754;2023-02-28T00:28:38;-0.40;99.90
22966;DHT22;11649;48.090;9.754;2023-02-28T00:31:04;-0.40;99.90
22966;DHT22;11649;48.090;9.754;2023-02-28T00:33:32;-0.40;99.90
22966;DHT22;11649;48.090;9.754;2023-02-28T00:36:07;-0.40;99.90
22966;DHT22;11649;48.090;9.754;2023-02-28T00:38:34;-0.40;99.90
22966;DHT22;11649;48.090;9.754;2023-02-28T00:41:01;-0.30;99.90
22966;DHT22;11649;48.090;9.754;2023-02-28T00:43:33;-0.30;99.90
22966;DHT22;11649;48.090;9.754;2023-02-28T00:46:00;-0.40;99.90
22966;DHT22;11649;48.090;9.754;2023-02-28T00:48:27;-0.30;99.90
22966;DHT22;11649;48.090;9.754;2023-02-28T00:50:54;-0.40;99.90
22966;DHT22;11649;48.090;9.754;2023-02-28T00:53:21;-0.40;99.90
22966;DHT22;11649;48.090;9.754;2023-02-28T00:55:49;-0.40;99.90
22966;DHT22;11649;48.090;9.754;2023-02-28T00:58:16;-0.30;99.90
22966;DHT22;11649;48.090;9.754;2023-02-28T01:00:43;-0.30;99.90
22966;DHT22;11649;48.090;9.754;2023-02-28T01:03:17;-0.40;99.90
22966;DHT22;11649;48.090;9.754;2023-02-28T01:05:45;-0.30;99.90
22966;DHT22;11649;48.090;9.754;2023-02-28T01:08:13;-0.30;99.90
22966;DHT22;11649;48.090;9.754;2023-02-28T01:10:40;-0.30;99.90
22966;DHT22;11649;48.090;9.754;2023-02-28T01:13:07;-0.30;99.90
22966;DHT22;11649;48.090;9.754;2023-02-28T01:15:34;-0.30;99.90
22966;DHT22;11649;48.090;9.754;2023-02-28T01:18:01;-0.30;99.90
22966;DHT22;11649;48.090;9.754;2023-02-28T01:20:28;-0.20;99.90
22966;DHT22;11649;48.090;9.754;2023-02-28T01:22:54;-0.30;99.90
22966;DHT22;11649;48.090;9.754;2023-02-28T01:25:21;-0.30;99.90
22966;DHT22;11649;48.090;9.754;2023-02-28T01:27:48;-0.30;99.90
22966;DHT22;11649;48.090;9.754;2023-02-28T01:30:15;-0.30;99.90
22966;DHT22;11649;48.090;9.754;2023-02-28T01:32:42;-0.30;99.90
22966;DHT22;11649;48.090;9.754;2023-02-28T01:35:08;-0.30;99.90
22966;DHT22;11649;48.090;9.754;2023-02-28T01:37:35;-0.40;99.90
22966;DHT22;11649;48.090;9.754;2023-02-28T01:40:03;-0.30;99.90
22966;DHT22;11649;48.090;9.754;2023-02-28T01:42:30;-0.30;99.90
22966;DHT22;11649;48.090;9.754;2023-02-28T01:47:32;-0.30;99.90
22966;DHT22;11649;48.090;9.754;2023-02-28T01:50:01;-0.30;99.90
22966;DHT22;11649;48.090;9.754;2023-02-28T01:52:28;-0.30;99.90
22966;DHT22;11649;48.090;9.754;2023-02-28T01:54:58;-0.20;99.90
22966;DHT22;11649;48.090;9.754;2023-02-28T01:57:30;-0.20;99.90
22966;DHT22;11649;48.090;9.754;2023-02-28T02:00:10;-0.30;99.90
22966;DHT22;11649;48.090;9.754;2023-02-28T02:02:44;-0.30;99.90
22966;DHT22;11649;48.090;9.754;2023-02-28T02:05:21;-0.30;99.90
22966;DHT22;11649;48.090;9.754;2023-02-28T02:07:51;-0.20;99.90
22966;DHT22;11649;48.090;9.754;2023-02-28T02:10:19;-0.30;99.90
22966;DHT22;11649;48.090;9.754;2023-02-28T02:22:05;-0.30;99.90
22966;DHT22;11649;48.090;9.754;2023-02-28T02:27:44;-0.30;99.90
22966;DHT22;11649;48.090;9.754;2023-02-28T02:36:12;-0.30;99.90
22966;DHT22;11649;48.090;9.754;2023-02-28T02:41:34;-0.30;99.90
22966;DHT22;11649;48.090;9.754;2023-02-28T02:44:13;-0.30;99.90
22966;DHT22;11649;48.090;9.754;2023-02-28T02:46:44;-0.20;99.90
22966;DHT22;11649;48.090;9.754;2023-02-28T02:49:20;-0.20;99.90
22966;DHT22;11649;48.090;9.754;2023-02-28T02:51:49;-0.20;99.90
22966;DHT22;11649;48.090;9.754;2023-02-28T02:54:21;-0.20;99.90
22966;DHT22;11649;48.090;9.754;2023-02-28T02:56:49;-0.20;99.90
22966;DHT22;11649;48.090;9.754;2023-02-28T02:59:21;-0.10;99.90
22966;DHT22;11649;48.090;9.754;2023-02-28T03:01:51;-0.10;99.90
22966;DHT22;11649;48.090;9.754;2023-02-28T03:04:22;-0.20;99.90
22966;DHT22;11649;48.090;9.754;2023-02-28T03:06:53;-0.20;99.90
22966;DHT22;11649;48.090;9.754;2023-02-28T03:09:25;-0.10;99.90
22966;DHT22;11649;48.090;9.754;2023-02-28T03:11:55;0.00;99.90
22966;DHT22;11649;48.090;9.754;2023-02-28T03:17:40;-0.10;99.50
22966;DHT22;11649;48.090;9.754;2023-02-28T03:20:27;-0.10;99.90
22966;DHT22;11649;48.090;9.754;2023-02-28T03:23:21;0.00;99.90
22966;DHT22;11649;48.090;9.754;2023-02-28T03:26:04;0.00;99.40
22966;DHT22;11649;48.090;9.754;2023-02-28T03:28:41;0.00;99.20
22966;DHT22;11649;48.090;9.754;2023-02-28T03:31:37;-0.20;99.90
22966;DHT22;11649;48.090;9.754;2023-02-28T03:34:17;-0.10;99.90
22966;DHT22;11649;48.090;9.754;2023-02-28T03:36:51;-0.10;99.90
22966;DHT22;11649;48.090;9.754;2023-02-28T03:39:42;-0.10;99.70
22966;DHT22;11649;48.090;9.754;2023-02-28T03:42:15;-0.10;98.90
22966;DHT22;11649;48.090;9.754;2023-02-28T03:44:47;-0.10;99.30
22966;DHT22;11649;48.090;9.754;2023-02-28T03:47:28;-0.10;98.40
22966;DHT22;11649;48.090;9.754;2023-02-28T03:50:04;0.00;98.00
22966;DHT22;11649;48.090;9.754;2023-02-28T03:52:36;0.00;97.70
22966;DHT22;11649;48.090;9.754;2023-02-28T03:55:08;0.00;96.20
22966;DHT22;11649;48.090;9.754;2023-02-28T03:58:04;0.00;96.80
22966;DHT22;11649;48.090;9.754;2023-02-28T04:00:37;0.00;97.30
22966;DHT22;11649;48.090;9.754;2023-02-28T04:03:04;-0.10;97.10
22966;DHT22;11649;48.090;9.754;2023-02-28T04:05:32;-0.10;95.80
22966;DHT22;11649;48.090;9.754;2023-02-28T04:08:07;-0.20;95.30
22966;DHT22;11649;48.090;9.754;2023-02-28T04:10:34;-0.10;95.90
22966;DHT22;11649;48.090;9.754;2023-02-28T04:13:01;-0.10;96.00
22966;DHT22;11649;48.090;9.754;2023-02-28T04:15:27;-0.10;96.20
22966;DHT22;11649;48.090;9.754;2023-02-28T04:17:54;0.00;96.50
22966;DHT22;11649;48.090;9.754;2023-02-28T04:20:21;-0.10;96.30
22966;DHT22;11649;48.090;9.754;2023-02-28T04:22:47;-0.20;96.00
22966;DHT22;11649;48.090;9.754;2023-02-28T04:25:14;-0.20;95.90
22966;DHT22;11649;48.090;9.754;2023-02-28T04:27:41;-0.30;95.40
22966;DHT22;11649;48.090;9.754;2023-02-28T04:30:08;-0.30;96.40
22966;DHT22;11649;48.090;9.754;2023-02-28T04:32:35;-0.30;96.60
22966;DHT22;11649;48.090;9.754;2023-02-28T04:35:02;-0.20;96.00
22966;DHT22;11649;48.090;9.754;2023-02-28T04:37:29;-0.30;94.60
22966;DHT22;11649;48.090;9.754;2023-02-28T04:39:56;-0.30;96.30
22966;DHT22;11649;48.090;9.754;2023-02-28T04:42:22;-0.20;95.20
22966;DHT22;11649;48.090;9.754;2023-02-28T04:44:49;-0.30;94.60
22966;DHT22;11649;48.090;9.754;2023-02-28T04:47:16;-0.30;95.30
22966;DHT22;11649;48.090;9.754;2023-02-28T04:49:43;-0.30;96.00
22966;DHT22;11649;48.090;9.754;2023-02-28T04:52:09;-0.30;95.60
22966;DHT22;11649;48.090;9.754;2023-02-28T04:54:36;-0.30;95.60
22966;DHT22;11649;48.090;9.754;2023-02-28T04:57:05;-0.30;96.10
22966;DHT22;11649;48.090;9.754;2023-02-28T04:59:32;-0.40;95.40
22966;DHT22;11649;48.090;9.754;2023-02-28T05:01:59;-0.40;94.90
22966;DHT22;11649;48.090;9.754;2023-02-28T05:04:26;-0.50;95.70
22966;DHT22;11649;48.090;9.754;2023-02-28T05:06:53;-0.50;95.60
22966;DHT22;11649;48.090;9.754;2023-02-28T05:09:20;-0.50;95.60
22966;DHT22;11649;48.090;9.754;2023-02-28T05:11:46;-0.50;96.20
22966;DHT22;11649;48.090;9.754;2023-02-28T05:14:14;-0.50;96.20
22966;DHT22;11649;48.090;9.754;2023-02-28T05:16:41;-0.50;96.40
22966;DHT22;11649;48.090;9.754;2023-02-28T05:19:08;-0.60;96.50
22966;DHT22;11649;48.090;9.754;2023-02-28T05:21:48;-0.50;96.60
22966;DHT22;11649;48.090;9.754;2023-02-28T05:24:16;-0.50;96.60
22966;DHT22;11649;48.090;9.754;2023-02-28T05:26:51;-0.60;96.80
22966;DHT22;11649;48.090;9.754;2023-02-28T05:29:18;-0.50;96.70
22966;DHT22;11649;48.090;9.754;2023-02-28T05:31:45;-0.50;96.30
22966;DHT22;11649;48.090;9.754;2023-02-28T05:34:12;-0.50;96.20
22966;DHT22;11649;48.090;9.754;2023-02-28T05:36:42;-0.60;96.40
22966;DHT22;11649;48.090;9.754;2023-02-28T05:39:09;-0.60;97.00
22966;DHT22;11649;48.090;9.754;2023-02-28T05:41:43;-0.60;96.80
22966;DHT22;11649;48.090;9.754;2023-02-28T05:44:10;-0.60;96.50
22966;DHT22;11649;48.090;9.754;2023-02-28T05:46:37;-0.60;97.30
22966;DHT22;11649;48.090;9.754;2023-02-28T05:49:04;-0.50;97.50
22966;DHT22;11649;48.090;9.754;2023-02-28T05:51:31;-0.60;96.80
22966;DHT22;11649;48.090;9.754;2023-02-28T05:53:59;-0.60;97.10
22966;DHT22;11649;48.090;9.754;2023-02-28T05:56:27;-0.60;97.40
22966;DHT22;11649;48.090;9.754;2023-02-28T05:58:53;-0.60;97.00
22966;DHT22;11649;48.090;9.754;2023-02-28T06:01:33;-0.70;97.50
22966;DHT22;11649;48.090;9.754;2023-02-28T06:04:01;-0.60;97.80
22966;DHT22;11649;48.090;9.754;2023-02-28T06:06:29;-0.50;98.00
22966;DHT22;11649;48.090;9.754;2023-02-28T06:09:03;-0.50;97.50
22966;DHT22;11649;48.090;9.754;2023-02-28T06:11:31;-0.50;97.60
22966;DHT22;11649;48.090;9.754;2023-02-28T06:13:59;-0.50;97.90
22966;DHT22;11649;48.090;9.754;2023-02-28T06:16:28;-0.60;97.70
22966;DHT22;11649;48.090;9.754;2023-02-28T06:18:57;-0.70;98.00
22966;DHT22;11649;48.090;9.754;2023-02-28T06:21:24;-0.70;98.40
22966;DHT22;11649;48.090;9.754;2023-02-28T06:23:51;-0.70;98.50
22966;DHT22;11649;48.090;9.754;2023-02-28T06:26:18;-0.70;99.00
22966;DHT22;11649;48.090;9.754;2023-02-28T06:28:46;-0.60;99.10
22966;DHT22;11649;48.090;9.754;2023-02-28T06:31:15;-0.60;98.80
22966;DHT22;11649;48.090;9.754;2023-02-28T06:33:43;-0.50;98.70
22966;DHT22;11649;48.090;9.754;2023-02-28T06:36:11;-0.60;98.10
22966;DHT22;11649;48.090;9.754;2023-02-28T06:38:40;-0.70;99.10
22966;DHT22;11649;48.090;9.754;2023-02-28T06:41:07;-0.60;99.40
22966;DHT22;11649;48.090;9.754;2023-02-28T06:43:41;-0.50;98.80
22966;DHT22;11649;48.090;9.754;2023-02-28T06:46:11;-0.50;98.80
22966;DHT22;11649;48.090;9.754;2023-02-28T06:48:39;-0.50;98.50
22966;DHT22;11649;48.090;9.754;2023-02-28T06:51:09;-0.50;98.30
22966;DHT22;11649;48.090;9.754;2023-02-28T06:53:36;-0.60;99.20
22966;DHT22;11649;48.090;9.754;2023-02-28T06:56:11;-0.60;98.70
22966;DHT22;11649;48.090;9.754;2023-02-28T06:58:38;-0.60;99.40
22966;DHT22;11649;48.090;9.754;2023-02-28T07:01:06;-0.50;99.30
22966;DHT22;11649;48.090;9.754;2023-02-28T07:03:35;-0.50;99.00
22966;DHT22;11649;48.090;9.754;2023-02-28T07:06:02;-0.50;99.30
22966;DHT22;11649;48.090;9.754;2023-02-28T07:08:30;-0.50;99.70
22966;DHT22;11649;48.090;9.754;2023-02-28T07:10:58;-0.50;98.80
22966;DHT22;11649;48.090;9.754;2023-02-28T07:13:25;-0.50;99.20
22966;DHT22;11649;48.090;9.754;2023-02-28T07:15:57;-0.50;99.70
22966;DHT22;11649;48.090;9.754;2023-02-28T07:18:24;-0.40;99.30
22966;DHT22;11649;48.090;9.754;2023-02-28T07:20:51;-0.30;99.20
22966;DHT22;11649;48.090;9.754;2023-02-28T07:23:18;-0.40;98.10
22966;DHT22;11649;48.090;9.754;2023-02-28T07:25:44;-0.40;98.40
22966;DHT22;11649;48.090;9.754;2023-02-28T07:28:12;-0.30;98.80
22966;DHT22;11649;48.090;9.754;2023-02-28T07:30:40;-0.30;97.90
22966;DHT22;11649;48.090;9.754;2023-02-28T07:33:07;-0.30;97.50
22966;DHT22;11649;48.090;9.754;2023-02-28T07:35:33;-0.20;97.50
22966;DHT22;11649;48.090;9.754;2023-02-28T07:38:00;-0.30;98.00
22966;DHT22;11649;48.090;9.754;2023-02-28T07:40:27;-0.30;98.10
22966;DHT22;11649;48.090;9.754;2023-02-28T07:42:54;-0.30;98.90
22966;DHT22;11649;48.090;9.754;2023-02-28T07:45:21;-0.30;99.00
22966;DHT22;11649;48.090;9.754;2023-02-28T07:47:47;-0.20;98.60
22966;DHT22;11649;48.090;9.754;2023-02-28T07:50:15;-0.10;97.20
22966;DHT22;11649;48.090;9.754;2023-02-28T07:52:42;-0.20;98.80
22966;DHT22;11649;48.090;9.754;2023-02-28T07:55:10;-0.20;99.20
22966;DHT22;11649;48.090;9.754;2023-02-28T07:57:37;-0.20;99.80
22966;DHT22;11649;48.090;9.754;2023-02-28T08:00:05;-0.10;98.40
22966;DHT22;11649;48.090;9.754;2023-02-28T08:02:33;0.00;97.90
22966;DHT22;11649;48.090;9.754;2023-02-28T08:05:00;-0.20;98.00
22966;DHT22;11649;48.090;9.754;2023-02-28T08:07:27;-0.30;98.90
22966;DHT22;11649;48.090;9.754;2023-02-28T08:09:54;-0.20;99.30
22966;DHT22;11649;48.090;9.754;2023-02-28T08:12:21;-0.20;99.10
22966;DHT22;11649;48.090;9.754;2023-02-28T08:14:48;-0.20;99.50
22966;DHT22;11649;48.090;9.754;2023-02-28T08:17:15;-0.20;99.80
22966;DHT22;11649;48.090;9.754;2023-02-28T08:19:41;0.00;99.00
22966;DHT22;11649;48.090;9.754;2023-02-28T08:22:08;0.10;98.20
22966;DHT22;11649;48.090;9.754;2023-02-28T08:24:35;0.10;98.70
22966;DHT22;11649;48.090;9.754;2023-02-28T08:27:01;0.20;98.10
22966;DHT22;11649;48.090;9.754;2023-02-28T08:29:28;0.30;98.30
22966;DHT22;11649;48.090;9.754;2023-02-28T08:31:56;0.40;96.30
22966;DHT22;11649;48.090;9.754;2023-02-28T08:34:25;0.40;96.40
22966;DHT22;11649;48.090;9.754;2023-02-28T08:36:52;0.40;96.10
22966;DHT22;11649;48.090;9.754;2023-02-28T08:39:19;0.30;97.30
22966;DHT22;11649;48.090;9.754;2023-02-28T08:41:46;0.30;97.10
22966;DHT22;11649;48.090;9.754;2023-02-28T08:44:18;0.40;96.40
22966;DHT22;11649;48.090;9.754;2023-02-28T08:46:45;0.40;96.80
22966;DHT22;11649;48.090;9.754;2023-02-28T08:49:12;0.40;96.90
22966;DHT22;11649;48.090;9.754;2023-02-28T08:51:39;0.50;95.50
22966;DHT22;11649;48.090;9.754;2023-02-28T08:54:06;0.40;95.70
22966;DHT22;11649;48.090;9.754;2023-02-28T08:56:33;0.40;96.10
22966;DHT22;11649;48.090;9.754;2023-02-28T08:59:00;0.40;96.80
22966;DHT22;11649;48.090;9.754;2023-02-28T09:01:28;0.40;97.40
22966;DHT22;11649;48.090;9.754;2023-02-28T09:03:56;0.50;96.50
22966;DHT22;11649;48.090;9.754;2023-02-28T09:06:25;0.50;95.50
22966;DHT22;11649;48.090;9.754;2023-02-28T09:08:52;0.50;94.80
22966;DHT22;11649;48.090;9.754;2023-02-28T09:11:20;0.50;95.90
22966;DHT22;11649;48.090;9.754;2023-02-28T09:13:47;0.50;95.90
22966;DHT22;11649;48.090;9.754;2023-02-28T09:16:15;0.50;95.50
22966;DHT22;11649;48.090;9.754;2023-02-28T09:18:43;0.50;95.40
22966;DHT22;11649;48.090;9.754;2023-02-28T09:21:12;0.50;95.40
22966;DHT22;11649;48.090;9.754;2023-02-28T09:23:44;0.50;95.40
22966;DHT22;11649;48.090;9.754;2023-02-28T09:26:19;0.50;95.70
22966;DHT22;11649;48.090;9.754;2023-02-28T09:28:47;0.50;95.50
22966;DHT22;11649;48.090;9.754;2023-02-28T09:31:15;0.60;95.50
22966;DHT22;11649;48.090;9.754;2023-02-28T09:33:43;0.50;96.30
22966;DHT22;11649;48.090;9.754;2023-02-28T09:36:10;0.60;95.50
22966;DHT22;11649;48.090;9.754;2023-02-28T09:38:37;0.60;96.30
22966;DHT22;11649;48.090;9.754;2023-02-28T09:41:16;0.70;95.40
22966;DHT22;11649;48.090;9.754;2023-02-28T09:43:46;0.70;94.60
22966;DHT22;11649;48.090;9.754;2023-02-28T09:46:27;0.60;95.50
22966;DHT22;11649;48.090;9.754;2023-02-28T09:48:56;0.70;94.40
22966;DHT22;11649;48.090;9.754;2023-02-28T09:54:15;0.70;94.70
22966;DHT22;11649;48.090;9.754;2023-02-28T09:56:50;0.70;95.30
22966;DHT22;11649;48.090;9.754;2023-02-28T09:59:27;0.80;95.00
22966;DHT22;11649;48.090;9.754;2023-02-28T10:02:04;0.80;94.70
22966;DHT22;11649;48.090;9.754;2023-02-28T10:10:04;0.80;94.80
22966;DHT22;11649;48.090;9.754;2023-02-28T10:12:36;0.90;93.80
22966;DHT22;11649;48.090;9.754;2023-02-28T10:15:07;1.00;93.20
22966;DHT22;11649;48.090;9.754;2023-02-28T10:17:40;1.10;93.10
22966;DHT22;11649;48.090;9.754;2023-02-28T10:20:23;1.10;92.00
22966;DHT22;11649;48.090;9.754;2023-02-28T10:25:45;1.30;92.40
22966;DHT22;11649;48.090;9.754;2023-02-28T10:28:16;1.40;92.20
22966;DHT22;11649;48.090;9.754;2023-02-28T10:30:48;1.40;92.30
22966;DHT22;11649;48.090;9.754;2023-02-28T10:33:31;1.30;91.40
22966;DHT22;11649;48.090;9.754;2023-02-28T10:35:58;1.30;91.90
22966;DHT22;11649;48.090;9.754;2023-02-28T10:38:34;1.40;91.80
22966;DHT22;11649;48.090;9.754;2023-02-28T10:43:30;1.60;91.10
22966;DHT22;11649;48.090;9.754;2023-02-28T10:48:41;1.70;90.80
22966;DHT22;11649;48.090;9.754;2023-02-28T10:51:15;1.80;91.40
22966;DHT22;11649;48.090;9.754;2023-02-28T10:53:48;1.80;90.50
22966;DHT22;11649;48.090;9.754;2023-02-28T10:56:27;1.80;90.80
22966;DHT22;11649;48.090;9.754;2023-02-28T11:07:05;1.70;90.60
22966;DHT22;11649;48.090;9.754;2023-02-28T11:09:35;1.80;91.00
22966;DHT22;11649;48.090;9.754;2023-02-28T11:12:05;1.80;91.20
22966;DHT22;11649;48.090;9.754;2023-02-28T11:14:57;1.80;90.90
22966;DHT22;11649;48.090;9.754;2023-02-28T11:17:27;1.70;90.40
22966;DHT22;11649;48.090;9.754;2023-02-28T11:20:01;1.60;92.20
22966;DHT22;11649;48.090;9.754;2023-02-28T11:22:43;1.70;90.80
22966;DHT22;11649;48.090;9.754;2023-02-28T11:27:51;1.90;92.30
22966;DHT22;11649;48.090;9.754;2023-02-28T11:30:36;2.00;90.40
22966;DHT22;11649;48.090;9.754;2023-02-28T11:35:51;2.00;90.60
22966;DHT22;11649;48.090;9.754;2023-02-28T11:38:18;2.00;90.70
22966;DHT22;11649;48.090;9.754;2023-02-28T11:49:02;2.20;90.40
22966;DHT22;11649;48.090;9.754;2023-02-28T11:51:39;2.30;88.20
22966;DHT22;11649;48.090;9.754;2023-02-28T11:57:19;2.50;86.80
22966;DHT22;11649;48.090;9.754;2023-02-28T12:00:26;2.60;86.60
22966;DHT22;11649;48.090;9.754;2023-02-28T12:17:01;2.90;85.60
22966;DHT22;11649;48.090;9.754;2023-02-28T12:20:09;3.00;84.60
22966;DHT22;11649;48.090;9.754;2023-02-28T12:22:55;3.10;83.40
22966;DHT22;11649;48.090;9.754;2023-02-28T12:28:19;2.90;83.40
22966;DHT22;11649;48.090;9.754;2023-02-28T12:30:57;2.90;84.80
22966;DHT22;11649;48.090;9.754;2023-02-28T12:33:31;3.10;82.70
22966;DHT22;11649;48.090;9.754;2023-02-28T12:36:10;3.10;84.30
22966;DHT22;11649;48.090;9.754;2023-02-28T12:38:45;3.10;83.70
22966;DHT22;11649;48.090;9.754;2023-02-28T12:41:19;3.30;82.80
22966;DHT22;11649;48.090;9.754;2023-02-28T12:44:03;3.40;79.40
22966;DHT22;11649;48.090;9.754;2023-02-28T12:46:34;3.50;81.30
22966;DHT22;11649;48.090;9.754;2023-02-28T12:49:08;3.60;80.00
22966;DHT22;11649;48.090;9.754;2023-02-28T12:51:36;3.50;79.60
22966;DHT22;11649;48.090;9.754;2023-02-28T12:59:32;4.10;77.10
22966;DHT22;11649;48.090;9.754;2023-02-28T13:10:45;6.40;71.10
22966;DHT22;11649;48.090;9.754;2023-02-28T13:13:18;6.60;67.80
22966;DHT22;11649;48.090;9.754;2023-02-28T13:16:06;6.60;67.00
22966;DHT22;11649;48.090;9.754;2023-02-28T13:18:38;6.00;67.80
22966;DHT22;11649;48.090;9.754;2023-02-28T13:21:26;6.00;69.20
22966;DHT22;11649;48.090;9.754;2023-02-28T13:29:00;6.30;68.50
22966;DHT22;11649;48.090;9.754;2023-02-28T13:31:27;6.20;67.40
22966;DHT22;11649;48.090;9.754;2023-02-28T13:36:27;6.20;67.30
22966;DHT22;11649;48.090;9.754;2023-02-28T13:39:02;6.20;67.60
22966;DHT22;11649;48.090;9.754;2023-02-28T13:52:10;6.70;66.80
22966;DHT22;11649;48.090;9.754;2023-02-28T13:57:49;7.80;65.20
22966;DHT22;11649;48.090;9.754;2023-02-28T14:00:57;8.60;62.40
22966;DHT22;11649;48.090;9.754;2023-02-28T14:06:28;10.30;55.90
22966;DHT22;11649;48.090;9.754;2023-02-28T14:11:37;10.40;54.40
22966;DHT22;11649;48.090;9.754;2023-02-28T14:14:05;11.20;54.10
22966;DHT22;11649;48.090;9.754;2023-02-28T14:16:45;11.90;52.10
22966;DHT22;11649;48.090;9.754;2023-02-28T14:19:26;13.20;48.20
22966;DHT22;11649;48.090;9.754;2023-02-28T14:32:41;10.80;50.30
22966;DHT22;11649;48.090;9.754;2023-02-28T14:37:48;9.20;55.20
22966;DHT22;11649;48.090;9.754;2023-02-28T14:40:21;8.70;55.30
22966;DHT22;11649;48.090;9.754;2023-02-28T14:42:55;8.10;57.80
22966;DHT22;11649;48.090;9.754;2023-02-28T14:45:22;8.00;58.60
22966;DHT22;11649;48.090;9.754;2023-02-28T14:47:51;7.80;60.00
22966;DHT22;11649;48.090;9.754;2023-02-28T14:50:23;7.80;60.40
22966;DHT22;11649;48.090;9.754;2023-02-28T14:52:54;8.20;60.10
22966;DHT22;11649;48.090;9.754;2023-02-28T14:55:26;8.50;57.20
22966;DHT22;11649;48.090;9.754;2023-02-28T14:58:02;8.40;58.20
22966;DHT22;11649;48.090;9.754;2023-02-28T15:00:33;8.30;57.60
22966;DHT22;11649;48.090;9.754;2023-02-28T15:03:11;8.20;58.80
22966;DHT22;11649;48.090;9.754;2023-02-28T15:05:55;8.40;58.10
22966;DHT22;11649;48.090;9.754;2023-02-28T15:08:22;8.70;57.10
22966;DHT22;11649;48.090;9.754;2023-02-28T15:10:58;8.60;57.40
22966;DHT22;11649;48.090;9.754;2023-02-28T15:13:40;8.10;58.20
22966;DHT22;11649;48.090;9.754;2023-02-28T15:18:52;7.40;62.00
22966;DHT22;11649;48.090;9.754;2023-02-28T15:21:29;7.40;61.20
22966;DHT22;11649;48.090;9.754;2023-02-28T15:24:21;7.30;61.10
22966;DHT22;11649;48.090;9.754;2023-02-28T15:26:54;7.50;62.70
22966;DHT22;11649;48.090;9.754;2023-02-28T15:29:25;7.40;60.70
22966;DHT22;11649;48.090;9.754;2023-02-28T15:32:00;7.10;61.20
22966;DHT22;11649;48.090;9.754;2023-02-28T15:34:40;6.70;61.90
22966;DHT22;11649;48.090;9.754;2023-02-28T15:40:11;6.00;65.30
22966;DHT22;11649;48.090;9.754;2023-02-28T15:42:38;5.90;65.90
22966;DHT22;11649;48.090;9.754;2023-02-28T15:45:05;6.00;65.80
22966;DHT22;11649;48.090;9.754;2023-02-28T15:47:32;6.10;65.70
22966;DHT22;11649;48.090;9.754;2023-02-28T15:50:06;6.10;66.10
22966;DHT22;11649;48.090;9.754;2023-02-28T15:52:44;5.80;66.30
22966;DHT22;11649;48.090;9.754;2023-02-28T15:55:18;5.60;66.90
22966;DHT22;11649;48.090;9.754;2023-02-28T15:57:46;5.40;67.50
22966;DHT22;11649;48.090;9.754;2023-02-28T16:00:19;5.00;69.80
22966;DHT22;11649;48.090;9.754;2023-02-28T16:02:47;4.90;70.50
22966;DHT22;11649;48.090;9.754;2023-02-28T16:05:28;5.00;70.50
22966;DHT22;11649;48.090;9.754;2023-02-28T16:08:06;5.00;70.60
22966;DHT22;11649;48.090;9.754;2023-02-28T16:10:37;5.00;70.80
22966;DHT22;11649;48.090;9.754;2023-02-28T16:13:04;5.00;70.90
22966;DHT22;11649;48.090;9.754;2023-02-28T16:15:37;5.10;70.70
22966;DHT22;11649;48.090;9.754;2023-02-28T16:18:12;5.10;70.20
22966;DHT22;11649;48.090;9.754;2023-02-28T16:20:39;4.90;72.50
22966;DHT22;11649;48.090;9.754;2023-02-28T16:23:06;4.70;72.70
22966;DHT22;11649;48.090;9.754;2023-02-28T16:25:42;4.60;72.80
22966;DHT22;11649;48.090;9.754;2023-02-28T16:28:23;4.30;73.70
22966;DHT22;11649;48.090;9.754;2023-02-28T16:30:53;4.30;73.80
22966;DHT22;11649;48.090;9.754;2023-02-28T16:33:20;4.30;74.10
22966;DHT22;11649;48.090;9.754;2023-02-28T16:35:47;4.30;74.90
22966;DHT22;11649;48.090;9.754;2023-02-28T16:38:13;4.10;75.30
22966;DHT22;11649;48.090;9.754;2023-02-28T16:40:40;3.90;77.40
22966;DHT22;11649;48.090;9.754;2023-02-28T16:43:13;3.80;76.70
22966;DHT22;11649;48.090;9.754;2023-02-28T16:45:42;3.70;78.00
22966;DHT22;11649;48.090;9.754;2023-02-28T16:48:14;3.60;78.80
22966;DHT22;11649;48.090;9.754;2023-02-28T16:50:42;3.60;80.00
22966;DHT22;11649;48.090;9.754;2023-02-28T16:53:10;3.40;80.60
22966;DHT22;11649;48.090;9.754;2023-02-28T16:55:37;3.50;80.70
22966;DHT22;11649;48.090;9.754;2023-02-28T16:58:04;3.40;81.90
22966;DHT22;11649;48.090;9.754;2023-02-28T17:00:32;3.40;82.40
22966;DHT22;11649;48.090;9.754;2023-02-28T17:02:59;3.30;81.90
22966;DHT22;11649;48.090;9.754;2023-02-28T17:05:29;3.20;83.20
22966;DHT22;11649;48.090;9.754;2023-02-28T17:07:59;3.20;82.90
22966;DHT22;11649;48.090;9.754;2023-02-28T17:10:26;3.10;84.30
22966;DHT22;11649;48.090;9.754;2023-02-28T17:12:53;3.00;84.70
22966;DHT22;11649;48.090;9.754;2023-02-28T17:15:28;3.00;85.20
22966;DHT22;11649;48.090;9.754;2023-02-28T17:17:56;3.00;85.60
22966;DHT22;11649;48.090;9.754;2023-02-28T17:20:23;2.90;86.00
22966;DHT22;11649;48.090;9.754;2023-02-28T17:22:51;2.90;86.50
22966;DHT22;11649;48.090;9.754;2023-02-28T17:25:18;2.80;87.20
22966;DHT22;11649;48.090;9.754;2023-02-28T17:27:45;2.70;88.70
22966;DHT22;11649;48.090;9.754;2023-02-28T17:30:18;2.70;88.80
22966;DHT22;11649;48.090;9.754;2023-02-28T17:32:45;2.70;88.30
22966;DHT22;11649;48.090;9.754;2023-02-28T17:35:12;2.60;89.00
22966;DHT22;11649;48.090;9.754;2023-02-28T17:37:39;2.60;90.00
22966;DHT22;11649;48.090;9.754;2023-02-28T17:40:13;2.50;90.20
22966;DHT22;11649;48.090;9.754;2023-02-28T17:42:41;2.60;90.40
22966;DHT22;11649;48.090;9.754;2023-02-28T17:45:08;2.60;90.60
22966;DHT22;11649;48.090;9.754;2023-02-28T17:47:35;2.60;90.60
22966;DHT22;11649;48.090;9.754;2023-02-28T17:50:02;2.50;91.10
22966;DHT22;11649;48.090;9.754;2023-02-28T17:52:29;2.40;91.50
22966;DHT22;11649;48.090;9.754;2023-02-28T17:54:56;2.40;91.90
22966;DHT22;11649;48.090;9.754;2023-02-28T17:57:22;2.30;92.00
22966;DHT22;11649;48.090;9.754;2023-02-28T17:59:49;2.30;91.80
22966;DHT22;11649;48.090;9.754;2023-02-28T18:02:16;2.30;92.10
22966;DHT22;11649;48.090;9.754;2023-02-28T18:04:43;2.30;92.50
22966;DHT22;11649;48.090;9.754;2023-02-28T18:07:11;2.20;92.30
22966;DHT22;11649;48.090;9.754;2023-02-28T18:09:38;2.20;92.80
22966;DHT22;11649;48.090;9.754;2023-02-28T18:12:05;2.20;93.30
22966;DHT22;11649;48.090;9.754;2023-02-28T18:14:32;2.20;92.50
22966;DHT22;11649;48.090;9.754;2023-02-28T18:16:58;2.20;92.80
22966;DHT22;11649;48.090;9.754;2023-02-28T18:19:25;2.20;92.90
22966;DHT22;11649;48.090;9.754;2023-02-28T18:21:53;2.10;93.30
22966;DHT22;11649;48.090;9.754;2023-02-28T18:24:21;2.10;93.60
22966;DHT22;11649;48.090;9.754;2023-02-28T18:26:50;2.10;93.20